Time;durP1;ratioP1;P1;durP2;ratioP2;P2;SDS_P1;SDS_P2;PMS_P1;PMS_P2;Temp;Humidity;BMP_temperature;BMP_pressure;BME280_temperature;BME280_humidity;BME280_pressure;Samples;Min_cycle;Max_cycle;Signal;HPM_P1;HPM_P2
2023/03/21 00:01:03;;;;;;;15.25;8.07;;;9.10;93.60;;;;;;5047920;28;20034;-55
2023/03/21 00:03:30;;;;;;;14.40;7.50;;;9.10;93.70;;;;;;5026330;28;20030;-53
2023/03/21 00:05:55;;;;;;;12.95;8.07;;;9.10;93.80;;;;;;5044943;28;20036;-68
2023/03/21 00:08:23;;;;;;;11.52;6.60;;;9.10;93.60;;;;;;5027177;28;20408;-69
2023/03/21 00:10:58;;;;;;;12.98;6.97;;;9.10;93.40;;;;;;5046939;28;20533;-68
2023/03/21 00:13:25;;;;;;;10.70;5.93;;;9.10;93.00;;;;;;5025630;28;20025;-68
2023/03/21 00:15:53;;;;;;;10.73;6.50;;;9.10;92.70;;;;;;5047903;28;20644;-48
2023/03/21 00:18:21;;;;;;;9.05;6.63;;;9.10;92.50;;;;;;5027013;28;20120;-46
2023/03/21 00:20:57;;;;;;;12.23;6.30;;;9.10;92.20;;;;;;5048188;28;20032;-50
2023/03/21 00:23:23;;;;;;;13.00;5.63;;;9.10;91.90;;;;;;5025448;28;20034;-47
2023/03/21 00:25:49;;;;;;;12.50;6.40;;;9.10;91.60;;;;;;5047898;28;20025;-48
2023/03/21 00:28:14;;;;;;;8.98;5.63;;;9.10;91.40;;;;;;5027140;28;20029;-48
2023/03/21 00:30:40;;;;;;;9.90;5.60;;;9.20;91.10;;;;;;5045205;28;20116;-53
2023/03/21 00:33:05;;;;;;;11.48;6.13;;;9.20;91.10;;;;;;5026465;28;20026;-45
2023/03/21 00:35:31;;;;;;;10.63;5.50;;;9.20;90.90;;;;;;5046955;28;20029;-68
2023/03/21 00:37:56;;;;;;;7.90;4.85;;;9.20;90.80;;;;;;5026685;28;20052;-68
2023/03/21 00:40:22;;;;;;;10.00;5.07;;;9.20;90.60;;;;;;5047001;28;20527;-68
2023/03/21 00:42:47;;;;;;;9.63;5.82;;;9.20;90.80;;;;;;5029392;28;20046;-68
2023/03/21 00:45:14;;;;;;;9.90;5.53;;;9.20;90.40;;;;;;5050525;28;20488;-68
2023/03/21 00:47:39;;;;;;;12.85;5.57;;;9.20;90.30;;;;;;5030461;28;20034;-67
2023/03/21 00:50:06;;;;;;;10.45;6.03;;;9.20;90.30;;;;;;5051272;28;20135;-67
2023/03/21 00:52:31;;;;;;;9.00;5.72;;;9.20;90.30;;;;;;5030405;28;20026;-68
2023/03/21 00:54:57;;;;;;;8.02;4.72;;;9.20;90.20;;;;;;5051061;28;20524;-67
2023/03/21 00:57:22;;;;;;;8.60;4.32;;;9.20;90.20;;;;;;5030440;28;20112;-67
2023/03/21 00:59:48;;;;;;;7.38;4.75;;;9.20;90.10;;;;;;5051006;28;20040;-67
2023/03/21 01:02:21;;;;;;;8.05;4.60;;;9.20;90.20;;;;;;5030360;28;20444;-67
2023/03/21 01:04:47;;;;;;;8.20;5.03;;;9.20;90.20;;;;;;5016873;28;20062;-67
2023/03/21 01:07:12;;;;;;;7.70;4.80;;;9.20;90.20;;;;;;5035903;28;20520;-67
2023/03/21 01:09:38;;;;;;;10.30;4.93;;;9.10;90.20;;;;;;5051036;28;20436;-67
2023/03/21 01:12:03;;;;;;;8.95;4.60;;;9.10;90.30;;;;;;5030268;28;20113;-67
2023/03/21 01:14:29;;;;;;;11.15;5.90;;;9.20;90.40;;;;;;5030317;28;20382;-67
2023/03/21 01:16:54;;;;;;;7.30;5.00;;;9.10;90.50;;;;;;5042435;28;20386;-67
2023/03/21 01:19:24;;;;;;;5.90;4.65;;;9.20;90.70;;;;;;5031540;28;20080;-67
2023/03/21 01:21:50;;;;;;;9.07;5.40;;;9.10;90.80;;;;;;5043488;28;20080;-67
2023/03/21 01:24:15;;;;;;;9.32;5.00;;;9.10;91.10;;;;;;5031349;28;20030;-67
2023/03/21 01:26:41;;;;;;;8.27;4.45;;;9.10;91.10;;;;;;5044248;28;20485;-67
2023/03/21 01:29:06;;;;;;;7.30;5.10;;;9.10;91.40;;;;;;5031327;28;20029;-67
2023/03/21 01:31:32;;;;;;;8.18;4.93;;;9.10;91.30;;;;;;5038839;28;20045;-67
2023/03/21 01:33:57;;;;;;;8.05;5.15;;;9.10;91.50;;;;;;5031262;28;20021;-67
2023/03/21 01:36:25;;;;;;;9.05;4.88;;;9.10;91.70;;;;;;5046480;28;20025;-66
2023/03/21 01:38:51;;;;;;;8.95;4.60;;;9.10;91.90;;;;;;5030969;28;20025;-67
2023/03/21 01:41:23;;;;;;;7.10;4.53;;;9.00;92.10;;;;;;5046116;28;20576;-67
2023/03/21 01:43:49;;;;;;;5.68;4.53;;;9.00;92.20;;;;;;5031074;28;20079;-67
2023/03/21 01:46:34;;;;;;;6.80;5.28;;;9.00;92.10;;;;;;5047417;28;20120;-67
2023/03/21 01:49:25;;;;;;;7.15;5.25;;;9.00;92.20;;;;;;5031091;28;20025;-64
2023/03/21 01:51:56;;;;;;;8.40;4.80;;;9.00;92.40;;;;;;5042655;28;20576;-67
2023/03/21 01:54:30;;;;;;;10.30;5.00;;;9.00;92.50;;;;;;5029911;28;20120;-67
2023/03/21 01:56:59;;;;;;;8.75;5.03;;;9.00;92.60;;;;;;5015647;28;20029;-67
2023/03/21 01:59:36;;;;;;;6.40;4.40;;;8.90;92.70;;;;;;5030902;28;20030;-67
2023/03/21 02:02:06;;;;;;;10.40;5.13;;;8.90;92.60;;;;;;5016382;28;20085;-66
2023/03/21 02:04:36;;;;;;;9.05;5.13;;;8.90;92.80;;;;;;5030690;28;20103;-65
2023/03/21 02:07:08;;;;;;;7.43;4.45;;;8.90;92.80;;;;;;5038314;28;20036;-67
2023/03/21 02:09:36;;;;;;;9.20;5.35;;;8.90;92.80;;;;;;5030647;28;20030;-67
2023/03/21 02:12:02;;;;;;;8.75;5.30;;;8.90;92.90;;;;;;5040911;28;20025;-66
2023/03/21 02:14:30;;;;;;;9.80;6.28;;;8.90;92.90;;;;;;5030366;28;20095;-67
2023/03/21 02:17:18;;;;;;;8.63;5.63;;;8.90;92.90;;;;;;5041553;28;20455;-67
2023/03/21 02:20:24;;;;;;;12.55;5.78;;;8.90;93.00;;;;;;5030482;28;20044;-67
2023/03/21 02:23:06;;;;;;;14.15;5.57;;;8.90;93.20;;;;;;5022369;28;20501;-67
2023/03/21 02:25:40;;;;;;;10.38;5.32;;;8.90;93.30;;;;;;5010309;28;20052;-67
2023/03/21 02:28:44;;;;;;;8.23;4.85;;;8.80;93.20;;;;;;5024677;28;20036;-67
2023/03/21 02:31:43;;;;;;;8.60;5.30;;;8.90;93.30;;;;;;5019033;28;20560;-66
2023/03/21 02:34:42;;;;;;;9.77;5.20;;;8.80;93.50;;;;;;5029953;28;20071;-67
2023/03/21 02:37:18;;;;;;;12.05;5.50;;;8.80;93.50;;;;;;5016387;28;20033;-66
2023/03/21 02:40:10;;;;;;;7.82;5.28;;;8.80;93.50;;;;;;5009175;28;20030;-67
2023/03/21 02:42:52;;;;;;;10.25;5.43;;;8.80;93.60;;;;;;5020224;28;20029;-67
2023/03/21 02:45:26;;;;;;;11.05;6.15;;;8.80;93.40;;;;;;5010241;28;20034;-67
2023/03/21 02:47:58;;;;;;;11.88;6.03;;;8.80;93.40;;;;;;5022249;28;20048;-67
2023/03/21 02:50:30;;;;;;;7.75;5.38;;;8.80;93.80;;;;;;5010211;28;20032;-67
2023/03/21 02:52:57;;;;;;;11.23;6.13;;;8.80;93.80;;;;;;5022887;28;20038;-67
2023/03/21 02:55:28;;;;;;;8.88;5.60;;;8.80;93.90;;;;;;5049085;28;20032;-67
2023/03/21 02:57:56;;;;;;;9.75;5.38;;;8.80;94.20;;;;;;5027964;28;20087;-67
2023/03/21 03:00:26;;;;;;;10.43;6.18;;;8.80;94.30;;;;;;5049100;28;20025;-66
2023/03/21 03:02:53;;;;;;;9.18;5.95;;;8.80;94.40;;;;;;5021884;28;20175;-67
2023/03/21 03:05:24;;;;;;;7.18;5.65;;;8.80;94.50;;;;;;5038132;28;20026;-67
2023/03/21 03:08:24;;;;;;;10.88;5.72;;;8.70;94.60;;;;;;5025523;28;20034;-67
2023/03/21 03:11:07;;;;;;;10.10;6.32;;;8.80;94.60;;;;;;5009647;28;20045;-66
2023/03/21 03:13:52;;;;;;;8.63;5.65;;;8.70;94.80;;;;;;5020186;28;20505;-67
2023/03/21 03:16:42;;;;;;;9.32;5.60;;;8.70;95.20;;;;;;5009751;28;20486;-66
2023/03/21 03:19:14;;;;;;;11.13;6.25;;;8.70;95.50;;;;;;5025009;28;20109;-67
2023/03/21 03:21:48;;;;;;;7.70;5.75;;;8.70;95.80;;;;;;5008397;28;20022;-67
2023/03/21 03:24:21;;;;;;;10.77;6.65;;;8.70;95.90;;;;;;5025657;28;20474;-67
2023/03/21 03:27:03;;;;;;;12.23;6.53;;;8.70;96.30;;;;;;5008209;28;20136;-68
2023/03/21 03:29:32;;;;;;;11.40;6.88;;;8.60;95.90;;;;;;5009430;28;20050;-67
2023/03/21 03:32:16;;;;;;;12.18;6.75;;;8.60;96.20;;;;;;5047354;28;20134;-66
2023/03/21 03:34:48;;;;;;;12.18;7.65;;;8.60;96.30;;;;;;5009439;28;20453;-66
2023/03/21 03:37:17;;;;;;;12.02;7.30;;;8.60;96.40;;;;;;5008877;28;20022;-66
2023/03/21 03:40:08;;;;;;;11.60;7.38;;;8.60;96.30;;;;;;5029138;28;20033;-67
2023/03/21 03:42:40;;;;;;;10.15;6.57;;;8.60;96.60;;;;;;5011693;28;20367;-67
2023/03/21 03:45:08;;;;;;;12.98;7.00;;;8.60;96.80;;;;;;5028968;28;20425;-67
2023/03/21 03:47:41;;;;;;;11.43;7.63;;;8.60;96.80;;;;;;5041529;28;20029;-67
2023/03/21 03:50:15;;;;;;;13.40;8.48;;;8.60;97.20;;;;;;5024270;28;20489;-67
2023/03/21 03:52:55;;;;;;;12.80;8.40;;;8.50;97.10;;;;;;5026940;28;20048;-67
2023/03/21 03:55:22;;;;;;;12.38;8.65;;;8.60;97.20;;;;;;5009312;28;20034;-67
2023/03/21 03:57:48;;;;;;;13.95;8.60;;;8.50;97.40;;;;;;5032102;28;20029;-67
2023/03/21 04:00:16;;;;;;;16.00;9.38;;;8.50;97.70;;;;;;5048006;28;20036;-67
2023/03/21 04:02:42;;;;;;;16.15;10.70;;;8.50;98.00;;;;;;5027488;28;20053;-68
2023/03/21 04:05:07;;;;;;;16.20;10.55;;;8.50;98.00;;;;;;5036778;28;20057;-66
2023/03/21 04:07:33;;;;;;;21.63;13.23;;;8.40;98.20;;;;;;5026692;28;20036;-68
2023/03/21 04:09:58;;;;;;;28.35;14.38;;;8.40;98.10;;;;;;5047773;28;20037;-67
2023/03/21 04:12:24;;;;;;;25.40;14.55;;;8.40;98.10;;;;;;5027347;28;20485;-67
2023/03/21 04:14:50;;;;;;;22.98;14.45;;;8.40;98.20;;;;;;5047769;28;20029;-67
2023/03/21 04:17:17;;;;;;;26.73;15.50;;;8.40;98.10;;;;;;5030079;28;20029;-67
2023/03/21 04:19:44;;;;;;;22.08;15.68;;;8.40;98.30;;;;;;5052462;28;20032;-67
2023/03/21 04:22:11;;;;;;;28.58;16.90;;;8.40;98.10;;;;;;5030538;28;20042;-67
2023/03/21 04:24:37;;;;;;;22.35;15.02;;;8.40;98.70;;;;;;5052158;28;20025;-67
2023/03/21 04:27:04;;;;;;;23.17;15.50;;;8.40;98.60;;;;;;5031240;28;20064;-66
2023/03/21 04:29:30;;;;;;;28.52;18.23;;;8.40;98.70;;;;;;5032745;28;20022;-67
2023/03/21 04:31:55;;;;;;;25.73;15.63;;;8.40;98.60;;;;;;5042110;28;20041;-67
2023/03/21 04:34:22;;;;;;;24.50;15.27;;;8.40;98.90;;;;;;5032200;28;20072;-66
2023/03/21 04:36:49;;;;;;;21.33;15.15;;;8.40;99.00;;;;;;5044541;28;20041;-67
2023/03/21 04:39:16;;;;;;;28.27;16.42;;;8.40;99.60;;;;;;5032592;28;20025;-67
2023/03/21 04:41:43;;;;;;;22.08;16.15;;;8.40;99.20;;;;;;5050059;28;20480;-67
2023/03/21 04:44:10;;;;;;;24.90;16.42;;;8.40;99.10;;;;;;5042082;28;20033;-67
2023/03/21 04:46:37;;;;;;;28.77;16.98;;;8.40;99.50;;;;;;5029539;28;20034;-67
2023/03/21 04:49:03;;;;;;;22.52;16.75;;;8.40;99.20;;;;;;5032385;28;20029;-67
2023/03/21 04:51:29;;;;;;;25.77;17.27;;;8.40;99.90;;;;;;5049614;28;20175;-67
2023/03/21 04:53:56;;;;;;;29.92;17.02;;;8.30;99.70;;;;;;5052152;28;20100;-67
2023/03/21 04:56:29;;;;;;;30.55;18.42;;;8.30;99.90;;;;;;5032367;28;20026;-66
2023/03/21 04:58:55;;;;;;;26.00;16.00;;;8.30;99.90;;;;;;5051745;28;20558;-67
2023/03/21 05:01:20;;;;;;;31.70;18.25;;;8.40;99.90;;;;;;5030529;28;20405;-66
2023/03/21 05:03:46;;;;;;;28.63;16.17;;;8.40;99.80;;;;;;5032181;28;20025;-66
2023/03/21 05:06:11;;;;;;;29.60;18.70;;;8.40;99.90;;;;;;5045429;28;20033;-67
2023/03/21 05:08:37;;;;;;;29.40;18.30;;;8.40;99.90;;;;;;5031981;28;20025;-67
2023/03/21 05:11:03;;;;;;;28.88;17.42;;;8.40;99.90;;;;;;5050749;28;20033;-67
2023/03/21 05:13:28;;;;;;;34.88;21.02;;;8.40;99.90;;;;;;5030398;28;20029;-66
2023/03/21 05:15:54;;;;;;;34.80;19.27;;;8.40;99.90;;;;;;5037865;28;20065;-60
2023/03/21 05:18:23;;;;;;;26.50;16.05;;;8.40;99.90;;;;;;5033413;28;20085;-59
2023/03/21 05:20:54;;;;;;;27.95;18.67;;;8.40;99.90;;;;;;5047028;28;20036;-60
2023/03/21 05:23:21;;;;;;;29.35;18.50;;;8.40;99.90;;;;;;5050226;28;20428;-59
2023/03/21 05:25:46;;;;;;;28.23;17.75;;;8.50;99.90;;;;;;5030004;28;20033;-59
2023/03/21 05:28:12;;;;;;;28.83;17.23;;;8.40;99.90;;;;;;5031245;28;20516;-61
2023/03/21 05:30:38;;;;;;;24.23;15.52;;;8.40;99.90;;;;;;5040620;28;20039;-60
2023/03/21 05:33:03;;;;;;;28.88;17.73;;;8.50;99.90;;;;;;5030751;28;20064;-59
2023/03/21 05:35:29;;;;;;;28.77;17.17;;;8.50;99.90;;;;;;5047898;28;20094;-60
2023/03/21 05:37:56;;;;;;;27.83;17.23;;;8.50;99.90;;;;;;5049651;28;20052;-60
2023/03/21 05:40:21;;;;;;;32.42;19.15;;;8.50;99.90;;;;;;5029564;28;20409;-60
2023/03/21 05:42:47;;;;;;;24.13;16.50;;;8.50;99.90;;;;;;5034708;28;20063;-60
2023/03/21 05:45:14;;;;;;;22.13;15.05;;;8.60;99.90;;;;;;5046588;28;22692;-60
2023/03/21 05:47:40;;;;;;;24.73;16.48;;;8.60;99.90;;;;;;5031163;28;20029;-60
2023/03/21 05:50:06;;;;;;;26.00;17.73;;;8.60;99.90;;;;;;5046821;28;20098;-60
2023/03/21 05:52:31;;;;;;;26.80;15.90;;;8.60;99.90;;;;;;5030907;28;20087;-60
2023/03/21 05:54:57;;;;;;;36.40;17.77;;;8.60;99.90;;;;;;5034307;28;20061;-60
2023/03/21 05:57:23;;;;;;;33.97;19.73;;;8.70;99.90;;;;;;5038636;28;20031;-60
2023/03/21 05:59:48;;;;;;;28.08;17.90;;;8.70;99.90;;;;;;5040812;28;20572;-61
2023/03/21 06:02:14;;;;;;;33.10;18.23;;;8.70;99.90;;;;;;5034180;28;20109;-60
2023/03/21 06:04:40;;;;;;;28.30;17.02;;;8.80;99.90;;;;;;5047228;28;20102;-60
2023/03/21 06:07:05;;;;;;;33.80;19.23;;;8.80;99.90;;;;;;5041647;28;20029;-60
2023/03/21 06:09:32;;;;;;;27.42;17.48;;;8.90;99.90;;;;;;5031720;28;20499;-60
2023/03/21 06:11:58;;;;;;;30.17;18.67;;;8.90;99.90;;;;;;5028201;28;20110;-60
2023/03/21 06:14:24;;;;;;;29.98;18.50;;;9.00;99.90;;;;;;5049309;28;20484;-59
2023/03/21 06:16:49;;;;;;;35.17;20.60;;;9.00;99.90;;;;;;5028670;28;20048;-60
2023/03/21 06:19:15;;;;;;;31.20;18.77;;;9.00;99.90;;;;;;5033753;28;20029;-60
2023/03/21 06:21:41;;;;;;;29.33;18.52;;;9.10;99.90;;;;;;5049558;28;20126;-60
2023/03/21 06:24:07;;;;;;;22.92;16.20;;;9.20;99.90;;;;;;5027259;28;20296;-60
2023/03/21 06:26:33;;;;;;;28.70;18.08;;;9.30;99.90;;;;;;5049299;28;20025;-60
2023/03/21 06:28:58;;;;;;;25.45;16.98;;;9.30;99.90;;;;;;5028900;28;20030;-61
2023/03/21 06:31:25;;;;;;;27.38;18.65;;;9.30;99.90;;;;;;5040773;28;20132;-60
2023/03/21 06:33:51;;;;;;;25.52;16.60;;;9.40;99.90;;;;;;5047327;28;20370;-60
2023/03/21 06:36:17;;;;;;;28.23;17.45;;;9.50;99.90;;;;;;5030358;28;20037;-58
2023/03/21 06:38:42;;;;;;;30.48;18.90;;;9.50;99.90;;;;;;5046699;28;20103;-64
2023/03/21 06:41:08;;;;;;;26.10;15.77;;;9.60;99.90;;;;;;5029915;28;20038;-64
2023/03/21 06:43:34;;;;;;;25.85;15.82;;;9.70;99.90;;;;;;5047215;28;20029;-64
2023/03/21 06:46:00;;;;;;;24.75;15.55;;;9.70;99.90;;;;;;5030282;28;20029;-64
2023/03/21 06:48:26;;;;;;;25.98;17.13;;;9.80;99.90;;;;;;5046951;28;20763;-65
2023/03/21 06:50:53;;;;;;;26.10;16.27;;;9.80;99.90;;;;;;5049561;28;20056;-64
2023/03/21 06:53:23;;;;;;;24.20;16.20;;;9.90;99.90;;;;;;5034427;28;20563;-65
2023/03/21 06:55:50;;;;;;;27.25;17.92;;;9.80;99.90;;;;;;5049235;28;20221;-64
2023/03/21 06:58:16;;;;;;;24.40;16.13;;;9.90;99.80;;;;;;5033536;28;20032;-64
2023/03/21 07:00:43;;;;;;;26.85;16.85;;;9.80;99.60;;;;;;5049450;28;20543;-64
2023/03/21 07:03:09;;;;;;;27.70;17.38;;;9.80;99.20;;;;;;5032132;28;20025;-65
2023/03/21 07:05:35;;;;;;;23.55;15.00;;;9.70;99.50;;;;;;5036464;28;20119;-64
2023/03/21 07:08:01;;;;;;;24.30;15.90;;;9.70;99.70;;;;;;5046592;28;20645;-63
2023/03/21 07:10:27;;;;;;;24.27;17.20;;;9.70;99.90;;;;;;5049009;28;20048;-64
2023/03/21 07:12:52;;;;;;;31.95;18.20;;;9.70;99.90;;;;;;5030434;28;20029;-64
2023/03/21 07:15:18;;;;;;;26.45;16.23;;;9.60;99.90;;;;;;5049265;28;20029;-64
2023/03/21 07:17:44;;;;;;;24.23;15.57;;;9.60;99.90;;;;;;5028995;28;20029;-64
2023/03/21 07:20:11;;;;;;;24.42;15.43;;;9.70;99.90;;;;;;5048760;28;20098;-64
2023/03/21 07:22:37;;;;;;;26.52;16.67;;;9.70;99.90;;;;;;5027722;28;20477;-64
2023/03/21 07:25:03;;;;;;;30.77;17.80;;;9.70;99.90;;;;;;5049195;28;20033;-63
2023/03/21 07:27:29;;;;;;;29.45;16.27;;;9.80;99.90;;;;;;5029142;28;20029;-64
2023/03/21 07:29:54;;;;;;;27.58;16.83;;;9.80;99.90;;;;;;5046405;28;20029;-64
2023/03/21 07:32:20;;;;;;;26.02;17.73;;;9.80;99.90;;;;;;5028029;28;20045;-65
2023/03/21 07:34:45;;;;;;;25.23;16.90;;;9.80;99.90;;;;;;5028174;28;20048;-64
2023/03/21 07:37:11;;;;;;;24.55;15.68;;;9.90;99.90;;;;;;5047737;28;20094;-64
2023/03/21 07:39:37;;;;;;;23.85;16.05;;;9.90;99.90;;;;;;5027528;28;20059;-64
2023/03/21 07:42:02;;;;;;;25.48;16.02;;;10.00;99.60;;;;;;5048164;28;20032;-64
2023/03/21 07:44:29;;;;;;;24.00;15.48;;;10.10;99.30;;;;;;5025915;28;20044;-64
2023/03/21 07:46:54;;;;;;;25.33;17.35;;;10.20;98.90;;;;;;5048040;28;20040;-64
2023/03/21 07:49:20;;;;;;;26.75;17.45;;;10.20;98.50;;;;;;5027672;28;20045;-64
2023/03/21 07:51:46;;;;;;;23.30;15.13;;;10.30;97.90;;;;;;5046863;28;20036;-65
2023/03/21 07:54:11;;;;;;;24.75;17.30;;;10.40;98.20;;;;;;5027061;28;20180;-64
2023/03/21 07:56:37;;;;;;;23.92;15.55;;;10.50;98.00;;;;;;5047790;28;20087;-65
2023/03/21 07:59:04;;;;;;;31.17;17.75;;;10.60;97.70;;;;;;5027187;28;20405;-64
2023/03/21 08:01:29;;;;;;;28.58;16.40;;;10.60;96.20;;;;;;5047580;28;20067;-65
2023/03/21 08:03:55;;;;;;;24.92;16.48;;;10.60;97.00;;;;;;5027301;28;20033;-65
2023/03/21 08:06:21;;;;;;;24.10;14.02;;;10.70;96.90;;;;;;5041607;28;20025;-64
2023/03/21 08:08:46;;;;;;;23.75;14.75;;;10.80;97.40;;;;;;5036747;28;20036;-64
2023/03/21 08:11:12;;;;;;;26.55;16.20;;;10.90;96.50;;;;;;5028798;28;20496;-64
2023/03/21 08:13:38;;;;;;;24.42;16.25;;;10.90;96.40;;;;;;5045814;28;20470;-64
2023/03/21 08:16:04;;;;;;;24.42;15.88;;;10.90;96.20;;;;;;5028866;28;20037;-64
2023/03/21 08:18:29;;;;;;;29.10;17.13;;;10.90;96.10;;;;;;5045497;28;20072;-64
2023/03/21 08:20:57;;;;;;;32.50;18.55;;;10.90;96.20;;;;;;5029099;28;20417;-65
2023/03/21 08:23:23;;;;;;;25.85;16.83;;;10.90;96.70;;;;;;5046129;28;20411;-64
2023/03/21 08:25:53;;;;;;;27.45;18.77;;;10.90;96.70;;;;;;5047899;28;20423;-64
2023/03/21 08:28:19;;;;;;;29.15;17.63;;;10.90;96.90;;;;;;5032787;28;20103;-65
2023/03/21 08:30:45;;;;;;;26.88;15.77;;;10.90;96.50;;;;;;5044876;28;20497;-65
2023/03/21 08:33:12;;;;;;;24.60;15.57;;;11.00;96.70;;;;;;5031331;28;20045;-65
2023/03/21 08:35:38;;;;;;;22.70;14.68;;;11.00;96.50;;;;;;5048049;28;20064;-64
2023/03/21 08:38:04;;;;;;;23.83;15.45;;;11.00;96.20;;;;;;5030805;28;20092;-64
2023/03/21 08:40:30;;;;;;;26.42;16.05;;;11.00;96.30;;;;;;5047930;28;20380;-65
2023/03/21 08:42:55;;;;;;;22.13;14.38;;;11.00;96.40;;;;;;5029644;28;20108;-64
2023/03/21 08:45:21;;;;;;;25.00;15.52;;;11.10;96.60;;;;;;5048090;28;20425;-64
2023/03/21 08:47:47;;;;;;;24.70;16.08;;;11.00;95.70;;;;;;5028153;28;20460;-64
2023/03/21 08:50:19;;;;;;;24.55;15.55;;;11.00;95.40;;;;;;5048050;28;20025;-64
2023/03/21 08:52:44;;;;;;;28.40;18.40;;;11.00;95.90;;;;;;5009267;28;20029;-64
2023/03/21 08:55:11;;;;;;;30.25;19.02;;;10.90;95.80;;;;;;5047638;28;20090;-64
2023/03/21 08:57:36;;;;;;;24.80;15.93;;;10.90;96.10;;;;;;5026709;28;20041;-63
2023/03/21 09:00:13;;;;;;;29.25;17.00;;;10.90;96.60;;;;;;5047966;28;20029;-63
2023/03/21 09:02:40;;;;;;;24.02;15.88;;;11.00;96.80;;;;;;5009139;28;20478;-64
2023/03/21 09:05:07;;;;;;;22.27;14.82;;;11.10;97.20;;;;;;5040205;28;20116;-64
2023/03/21 09:07:35;;;;;;;21.13;14.18;;;11.20;96.60;;;;;;5031487;28;20452;-64
2023/03/21 09:10:02;;;;;;;21.92;14.98;;;11.20;96.60;;;;;;5012030;28;20026;-62
2023/03/21 09:12:28;;;;;;;26.13;16.70;;;11.30;96.60;;;;;;5050495;28;20036;-64
2023/03/21 09:14:53;;;;;;;19.40;12.73;;;11.30;95.90;;;;;;5030142;28;20046;-60
2023/03/21 09:17:19;;;;;;;21.88;14.38;;;11.40;96.00;;;;;;5050799;28;20290;-60
2023/03/21 09:19:46;;;;;;;20.35;12.93;;;11.50;95.80;;;;;;5029995;28;20026;-60
2023/03/21 09:22:13;;;;;;;23.92;14.32;;;11.50;95.40;;;;;;5050424;28;20473;-60
2023/03/21 09:24:40;;;;;;;18.50;12.95;;;11.60;95.40;;;;;;5029925;28;20043;-60
2023/03/21 09:27:06;;;;;;;22.75;15.77;;;11.60;95.10;;;;;;5050391;28;20212;-60
2023/03/21 09:29:32;;;;;;;21.58;13.95;;;11.70;94.80;;;;;;5029853;28;20440;-60
2023/03/21 09:31:58;;;;;;;22.92;14.70;;;11.80;94.80;;;;;;5050543;28;20041;-60
2023/03/21 09:34:25;;;;;;;25.00;15.70;;;11.80;94.30;;;;;;5029559;28;20076;-60
2023/03/21 09:36:53;;;;;;;23.40;16.15;;;11.90;93.20;;;;;;5050447;28;20439;-60
2023/03/21 09:39:19;;;;;;;23.77;15.48;;;11.80;93.70;;;;;;5029323;28;20482;-60
2023/03/21 09:42:30;;;;;;;20.67;14.60;;;11.80;93.30;;;;;;5050091;28;20112;-61
2023/03/21 09:45:08;;;;;;;22.30;13.82;;;11.90;93.50;;;;;;5028623;28;20048;-60
2023/03/21 09:47:48;;;;;;;19.73;13.90;;;12.00;92.90;;;;;;5010306;28;20037;-60
2023/03/21 09:50:18;;;;;;;22.75;15.70;;;12.10;92.60;;;;;;5011001;28;20053;-60
2023/03/21 09:53:08;;;;;;;20.20;13.35;;;12.10;92.00;;;;;;5011827;28;20495;-60
2023/03/21 09:55:37;;;;;;;25.65;14.18;;;12.10;92.20;;;;;;5050663;28;20021;-60
2023/03/21 09:58:11;;;;;;;19.02;13.40;;;12.20;92.80;;;;;;5032766;28;20499;-60
2023/03/21 10:00:42;;;;;;;19.33;13.10;;;12.10;92.50;;;;;;5050678;28;20017;-60
2023/03/21 10:03:22;;;;;;;23.85;15.00;;;12.10;93.40;;;;;;5033008;28;20060;-59
2023/03/21 10:05:49;;;;;;;18.83;13.48;;;12.10;93.70;;;;;;5032828;28;20025;-60
2023/03/21 10:08:21;;;;;;;19.25;12.55;;;12.10;94.10;;;;;;5047829;28;20086;-60
2023/03/21 10:11:00;;;;;;;18.63;12.80;;;12.20;94.60;;;;;;5050092;28;20033;-60
2023/03/21 10:13:29;;;;;;;19.55;12.73;;;12.20;94.10;;;;;;5022519;28;20358;-60
2023/03/21 10:16:00;;;;;;;23.20;14.95;;;12.20;94.00;;;;;;5050015;28;20025;-60
2023/03/21 10:18:29;;;;;;;17.30;11.52;;;12.20;94.00;;;;;;5035475;28;20036;-60
2023/03/21 10:20:55;;;;;;;18.88;11.85;;;12.20;94.00;;;;;;5050267;28;20013;-60
2023/03/21 10:23:26;;;;;;;18.02;11.27;;;12.20;93.10;;;;;;5035383;28;20507;-61
2023/03/21 10:25:57;;;;;;;16.42;10.63;;;12.20;93.00;;;;;;5050070;28;20036;-60
2023/03/21 10:28:28;;;;;;;16.38;11.73;;;12.40;93.00;;;;;;5021962;28;20392;-60
2023/03/21 10:30:57;;;;;;;16.80;10.27;;;12.50;92.30;;;;;;5045588;28;20552;-60
2023/03/21 10:33:26;;;;;;;11.25;8.50;;;12.60;92.00;;;;;;5034964;28;20094;-61
2023/03/21 10:35:59;;;;;;;15.13;8.77;;;12.80;91.90;;;;;;5049668;28;20029;-60
2023/03/21 10:38:25;;;;;;;13.98;9.18;;;13.00;91.40;;;;;;5035013;28;20033;-60
2023/03/21 10:40:52;;;;;;;15.48;10.20;;;13.10;91.30;;;;;;5049937;28;20032;-60
2023/03/21 10:43:26;;;;;;;13.40;8.55;;;13.20;84.30;;;;;;5034327;28;20116;-60
2023/03/21 10:45:53;;;;;;;11.02;8.20;;;13.20;82.10;;;;;;5049635;28;20092;-60
2023/03/21 10:48:20;;;;;;;11.32;7.85;;;13.30;87.30;;;;;;5034396;28;20098;-60
2023/03/21 10:50:48;;;;;;;12.25;8.80;;;13.40;87.50;;;;;;5049628;28;20020;-60
2023/03/21 10:53:26;;;;;;;12.57;8.10;;;13.30;85.00;;;;;;5033211;28;20493;-60
2023/03/21 10:55:55;;;;;;;12.38;8.82;;;13.40;86.10;;;;;;5049316;28;20029;-61
2023/03/21 10:58:26;;;;;;;11.32;7.88;;;13.40;85.30;;;;;;5034161;28;20033;-60
2023/03/21 11:00:57;;;;;;;16.15;10.35;;;13.30;85.30;;;;;;5049610;28;20373;-60
2023/03/21 11:03:45;;;;;;;13.85;9.18;;;13.20;81.90;;;;;;5034625;28;20480;-60
2023/03/21 11:06:30;;;;;;;12.80;8.70;;;13.10;82.00;;;;;;5018667;28;20556;-60
2023/03/21 11:09:13;;;;;;;12.30;8.38;;;13.20;80.90;;;;;;5047064;28;20040;-60
2023/03/21 11:11:48;;;;;;;11.38;7.22;;;13.30;82.00;;;;;;5009639;28;20030;-60
2023/03/21 11:14:37;;;;;;;12.07;8.30;;;13.40;82.70;;;;;;5021025;28;20040;-60
2023/03/21 11:17:26;;;;;;;12.75;8.93;;;13.50;79.10;;;;;;5009425;28;20042;-59
2023/03/21 11:20:04;;;;;;;13.40;10.02;;;13.40;78.10;;;;;;5026682;28;20120;-60
2023/03/21 11:22:37;;;;;;;13.43;9.63;;;13.30;79.40;;;;;;5009284;28;20025;-60
2023/03/21 11:25:06;;;;;;;12.75;8.05;;;13.30;80.70;;;;;;5009525;28;20281;-60
2023/03/21 11:27:33;;;;;;;17.55;9.25;;;13.40;79.00;;;;;;5048489;28;20037;-61
2023/03/21 11:30:03;;;;;;;11.95;8.50;;;13.40;81.00;;;;;;5049024;28;20033;-61
2023/03/21 11:32:31;;;;;;;12.85;8.63;;;13.30;78.50;;;;;;5008968;28;20060;-60
2023/03/21 11:35:02;;;;;;;12.57;8.88;;;13.20;81.20;;;;;;5046855;28;20546;-60
2023/03/21 11:37:36;;;;;;;12.77;9.32;;;13.10;81.50;;;;;;5028773;28;20060;-60
2023/03/21 11:40:08;;;;;;;12.25;8.55;;;13.00;80.50;;;;;;5009151;28;20037;-60
2023/03/21 11:42:41;;;;;;;12.38;8.80;;;12.90;82.50;;;;;;5046395;28;20085;-58
2023/03/21 11:45:16;;;;;;;12.95;8.85;;;12.80;83.30;;;;;;5048568;28;20044;-60
2023/03/21 11:47:42;;;;;;;15.60;11.10;;;12.70;84.20;;;;;;5008321;28;20061;-60
2023/03/21 11:50:21;;;;;;;16.90;10.93;;;12.50;84.70;;;;;;5048233;28;20078;-60
2023/03/21 11:53:02;;;;;;;12.80;9.10;;;12.40;86.00;;;;;;5010689;28;20026;-60
2023/03/21 11:55:45;;;;;;;14.85;10.40;;;12.50;87.00;;;;;;5048315;28;20336;-60
2023/03/21 11:58:19;;;;;;;13.50;9.52;;;12.40;85.40;;;;;;5016838;28;20068;-60
2023/03/21 12:01:01;;;;;;;9.65;7.70;;;12.40;86.30;;;;;;5048471;28;20017;-60
2023/03/21 12:03:51;;;;;;;16.17;9.82;;;12.60;86.60;;;;;;5021431;28;20037;-60
2023/03/21 12:06:43;;;;;;;13.23;8.95;;;12.60;86.30;;;;;;5005699;28;20296;-60
2023/03/21 12:09:24;;;;;;;11.50;8.20;;;12.70;85.00;;;;;;5029781;28;20176;-60
2023/03/21 12:12:06;;;;;;;14.20;8.63;;;12.90;85.50;;;;;;5008627;28;20041;-60
2023/03/21 12:14:49;;;;;;;15.68;9.75;;;13.10;84.20;;;;;;5023011;28;20033;-60
2023/03/21 12:17:44;;;;;;;15.02;10.23;;;13.10;81.80;;;;;;5008798;28;20513;-60
2023/03/21 12:20:25;;;;;;;14.00;8.90;;;13.00;80.00;;;;;;5008441;28;20026;-60
2023/03/21 12:23:06;;;;;;;11.95;8.25;;;13.00;82.10;;;;;;5046200;28;20493;-60
2023/03/21 12:26:07;;;;;;;12.13;8.38;;;13.00;82.50;;;;;;5048301;28;20072;-60
2023/03/21 12:29:06;;;;;;;18.05;10.50;;;13.10;81.80;;;;;;5023447;28;20120;-60
2023/03/21 12:32:09;;;;;;;12.70;8.80;;;13.10;80.20;;;;;;5026744;28;20123;-60
2023/03/21 12:35:09;;;;;;;12.60;8.38;;;13.20;81.40;;;;;;5027268;28;20044;-60
2023/03/21 12:37:56;;;;;;;16.40;10.82;;;13.20;79.20;;;;;;5008751;28;20061;-59
2023/03/21 12:40:49;;;;;;;12.02;8.48;;;13.30;79.30;;;;;;5052104;28;20481;-46
2023/03/21 12:43:40;;;;;;;14.20;8.43;;;13.40;80.50;;;;;;5021910;28;20485;-44
2023/03/21 12:46:20;;;;;;;12.30;8.50;;;13.50;76.70;;;;;;5052120;28;20025;-45
2023/03/21 12:49:00;;;;;;;12.23;7.85;;;13.50;78.60;;;;;;5029905;28;20543;-47
2023/03/21 12:51:31;;;;;;;12.00;8.85;;;13.60;79.10;;;;;;5012069;28;20030;-45
2023/03/21 12:54:16;;;;;;;19.67;11.40;;;13.60;78.30;;;;;;5033764;28;20027;-49
2023/03/21 12:56:53;;;;;;;14.52;9.90;;;13.50;76.70;;;;;;5012324;28;20117;-46